createdAt,value
2017-12-26T18:57:59.145Z,56.60
2017-12-26T19:00:27.898Z,53.20
2017-12-26T19:02:55.068Z,53.20
2017-12-26T19:05:23.014Z,53.20
2017-12-26T19:07:50.181Z,53.20
2017-12-26T19:10:17.358Z,53.30
2017-12-26T19:12:45.298Z,53.00
2017-12-26T19:15:12.500Z,52.90
2017-12-26T19:17:39.669Z,53.10
2017-12-26T19:20:06.834Z,52.70
2017-12-26T19:22:34.017Z,52.80
2017-12-26T19:25:02.002Z,52.70
2017-12-26T19:27:29.933Z,52.80
2017-12-26T19:29:57.102Z,52.70
2017-12-26T19:32:24.406Z,52.60
2017-12-26T19:34:51.597Z,52.40
2017-12-26T19:37:18.769Z,52.60
2017-12-26T19:39:46.768Z,52.50
2017-12-26T19:42:13.982Z,52.50
2017-12-26T19:44:41.149Z,52.30
2017-12-26T19:47:09.085Z,52.20
2017-12-26T19:49:36.255Z,52.20
2017-12-26T19:52:03.428Z,52.20
2017-12-26T19:54:31.365Z,52.40
2017-12-26T19:56:58.546Z,52.30
2017-12-26T19:59:28.143Z,52.20
2017-12-26T20:01:55.785Z,52.20
2017-12-26T20:04:24.227Z,52.20
2017-12-26T20:06:51.990Z,52.20
2017-12-26T20:09:20.628Z,52.40
2017-12-26T20:12:03.988Z,52.40
2017-12-26T20:14:34.529Z,52.00
2017-12-26T20:17:01.747Z,51.90
2017-12-26T20:19:29.786Z,51.70
2017-12-26T20:21:57.065Z,51.80
2017-12-26T20:24:24.250Z,51.70
2017-12-26T20:26:52.270Z,52.00
2017-12-26T20:29:20.361Z,52.00
2017-12-26T20:31:47.529Z,52.10
2017-12-26T20:34:15.513Z,52.00
2017-12-26T20:36:42.718Z,51.90
2017-12-26T20:39:10.952Z,51.70
2017-12-26T20:41:38.268Z,51.80
2017-12-26T20:44:06.321Z,51.60
2017-12-26T20:46:33.941Z,52.10
2017-12-26T20:49:01.104Z,51.70
2017-12-26T20:51:29.077Z,51.90
2017-12-26T20:53:56.258Z,52.00
2017-12-26T20:56:23.466Z,51.90
2017-12-26T20:58:51.608Z,52.20
2017-12-26T21:01:18.816Z,52.00
2017-12-26T21:03:45.994Z,52.00
2017-12-26T21:06:13.861Z,52.10
2017-12-26T21:08:41.030Z,52.10
2017-12-26T21:11:08.354Z,52.00
2017-12-26T21:13:35.518Z,52.10
2017-12-26T21:16:04.553Z,52.10
2017-12-26T21:18:33.304Z,52.00
2017-12-26T21:21:00.989Z,52.10
2017-12-26T21:23:29.701Z,52.10
2017-12-26T21:25:57.761Z,52.10
2017-12-26T21:28:25.573Z,52.10
2017-12-26T21:30:52.757Z,52.00
2017-12-26T21:33:20.013Z,52.00
2017-12-26T21:35:48.033Z,52.10
2017-12-26T21:38:15.237Z,51.90
2017-12-26T21:40:43.845Z,52.20
2017-12-26T21:43:12.645Z,51.90
2017-12-26T21:45:39.828Z,51.90
2017-12-26T21:48:07.100Z,51.70
2017-12-26T21:50:35.605Z,51.90
2017-12-26T21:53:02.781Z,52.10
2017-12-26T21:55:30.718Z,51.70
2017-12-26T21:57:58.021Z,51.70
2017-12-26T22:00:25.199Z,51.50
2017-12-26T22:02:52.369Z,51.40
2017-12-26T22:05:20.396Z,51.30
2017-12-26T22:07:47.574Z,51.20
2017-12-26T22:10:14.743Z,51.00
2017-12-26T22:12:41.918Z,51.10
2017-12-26T22:15:09.858Z,51.20
2017-12-26T22:17:38.849Z,51.20
2017-12-26T22:20:06.017Z,51.80
2017-12-26T22:22:33.181Z,51.00
2017-12-26T22:25:01.115Z,51.20
2017-12-26T22:27:28.393Z,51.20
2017-12-26T22:29:55.557Z,51.20
2017-12-26T22:32:24.849Z,51.40
2017-12-26T22:34:52.023Z,51.40
2017-12-26T22:37:19.953Z,51.40
2017-12-26T22:39:47.121Z,51.40
2017-12-26T22:42:14.296Z,51.40
2017-12-26T22:44:42.229Z,51.40
2017-12-26T22:47:09.395Z,51.40
2017-12-26T22:49:36.566Z,51.40
2017-12-26T22:52:04.501Z,51.00
2017-12-26T22:54:31.684Z,51.00
2017-12-26T22:56:59.624Z,50.90
2017-12-26T22:59:26.796Z,50.90
2017-12-26T23:01:54.737Z,50.30
2017-12-26T23:04:21.911Z,50.30
2017-12-26T23:06:49.082Z,50.30
2017-12-26T23:09:17.017Z,50.30
2017-12-26T23:11:44.225Z,50.40
2017-12-26T23:14:17.268Z,50.40
2017-12-26T23:16:50.266Z,50.70
2017-12-26T23:19:18.228Z,50.80
2017-12-26T23:21:45.400Z,50.70
2017-12-26T23:24:19.083Z,50.70
2017-12-26T23:26:51.877Z,50.70
2017-12-26T23:29:25.447Z,50.70
2017-12-26T23:31:58.365Z,50.60
2017-12-26T23:34:31.957Z,50.70
2017-12-26T23:37:04.760Z,50.70
2017-12-26T23:39:38.369Z,50.70
2017-12-26T23:42:11.305Z,50.70
2017-12-26T23:44:44.155Z,50.60
2017-12-26T23:47:16.969Z,50.30
2017-12-26T23:49:49.818Z,50.30
2017-12-26T23:52:22.629Z,50.40
2017-12-26T23:54:55.445Z,50.30
2017-12-26T23:57:28.328Z,50.00
